Bellview, Florida
Current Conditions -  °F | °C
As of 6:56 AM on Saturday 25 Oct 2014 (Local Time) from KNPA Reporting Station
Clear Clear  
Wind Chill: 51°   Ceiling: Unl
Heat Index: 51°   Visibility: 10mi
Dew Point: 47°   Wind: 6mph
Humidity: 86%   Direction: 340°NNW
Pressure: 30.08"   Gusts: NA
Location:  30.46°N, 87.31°W
Report Text: KNPA 251156Z AUTO 34005KT 10SM CLR 11/08 A3008 RMK AO2 SLP186 T01060083 10128 20089 52014
Loading
Personal Weather Stations






























Interactive Weather Map
Tropical Storm Tracking
New forecast layout! Learn more

10-Day Weather Forecast

Advertisements
Track Severe Weather on mobile